sensor_id;sensor_type;location;lat;lon;timestamp;P1;durP1;ratioP1;P2;durP2;ratioP2
78324;SDS011;67584;51.400;6.692;2023-09-12T00:01:04;16.95;;;12.23;;
78324;SDS011;67584;51.400;6.692;2023-09-12T00:03:33;16.85;;;11.35;;
78324;SDS011;67584;51.400;6.692;2023-09-12T00:06:00;13.57;;;11.20;;
78324;SDS011;67584;51.400;6.692;2023-09-12T00:08:27;15.68;;;11.95;;
78324;SDS011;67584;51.400;6.692;2023-09-12T00:11:03;13.82;;;10.93;;
78324;SDS011;67584;51.400;6.692;2023-09-12T00:13:29;13.82;;;10.93;;
78324;SDS011;67584;51.400;6.692;2023-09-12T00:15:56;15.77;;;11.75;;
78324;SDS011;67584;51.400;6.692;2023-09-12T00:18:22;14.75;;;10.73;;
78324;SDS011;67584;51.400;6.692;2023-09-12T00:20:48;13.80;;;10.50;;
78324;SDS011;67584;51.400;6.692;2023-09-12T00:23:15;15.15;;;12.02;;
78324;SDS011;67584;51.400;6.692;2023-09-12T00:25:40;22.25;;;13.43;;
78324;SDS011;67584;51.400;6.692;2023-09-12T00:28:06;20.75;;;14.43;;
78324;SDS011;67584;51.400;6.692;2023-09-12T00:30:31;22.00;;;13.20;;
78324;SDS011;67584;51.400;6.692;2023-09-12T00:32:57;25.50;;;15.27;;
78324;SDS011;67584;51.400;6.692;2023-09-12T00:35:24;18.10;;;13.38;;
78324;SDS011;67584;51.400;6.692;2023-09-12T00:37:50;22.88;;;15.18;;
78324;SDS011;67584;51.400;6.692;2023-09-12T00:40:15;26.48;;;16.30;;
78324;SDS011;67584;51.400;6.692;2023-09-12T00:42:41;24.67;;;15.30;;
78324;SDS011;67584;51.400;6.692;2023-09-12T00:45:08;23.80;;;15.90;;
78324;SDS011;67584;51.400;6.692;2023-09-12T00:47:33;18.80;;;13.52;;
78324;SDS011;67584;51.400;6.692;2023-09-12T00:50:01;21.85;;;15.35;;
78324;SDS011;67584;51.400;6.692;2023-09-12T00:52:29;21.65;;;14.80;;
78324;SDS011;67584;51.400;6.692;2023-09-12T00:54:56;19.63;;;13.20;;
78324;SDS011;67584;51.400;6.692;2023-09-12T00:57:22;23.05;;;15.45;;
78324;SDS011;67584;51.400;6.692;2023-09-12T00:59:49;17.85;;;13.43;;
78324;SDS011;67584;51.400;6.692;2023-09-12T01:02:15;21.08;;;13.40;;
78324;SDS011;67584;51.400;6.692;2023-09-12T01:04:41;20.58;;;13.57;;
78324;SDS011;67584;51.400;6.692;2023-09-12T01:07:07;18.13;;;12.52;;
78324;SDS011;67584;51.400;6.692;2023-09-12T01:09:33;18.55;;;13.73;;
78324;SDS011;67584;51.400;6.692;2023-09-12T01:12:00;15.75;;;12.48;;
78324;SDS011;67584;51.400;6.692;2023-09-12T01:14:28;19.45;;;13.25;;
78324;SDS011;67584;51.400;6.692;2023-09-12T01:16:57;23.30;;;13.45;;
78324;SDS011;67584;51.400;6.692;2023-09-12T01:19:23;19.25;;;13.27;;
78324;SDS011;67584;51.400;6.692;2023-09-12T01:24:55;17.50;;;12.45;;
78324;SDS011;67584;51.400;6.692;2023-09-12T01:27:50;19.02;;;12.43;;
78324;SDS011;67584;51.400;6.692;2023-09-12T01:30:17;18.20;;;12.02;;
78324;SDS011;67584;51.400;6.692;2023-09-12T01:32:45;18.00;;;12.88;;
78324;SDS011;67584;51.400;6.692;2023-09-12T01:35:12;18.88;;;12.10;;
78324;SDS011;67584;51.400;6.692;2023-09-12T01:37:38;16.40;;;12.38;;
78324;SDS011;67584;51.400;6.692;2023-09-12T01:40:04;18.88;;;12.13;;
78324;SDS011;67584;51.400;6.692;2023-09-12T01:42:35;16.27;;;12.05;;
78324;SDS011;67584;51.400;6.692;2023-09-12T01:45:03;18.05;;;12.73;;
78324;SDS011;67584;51.400;6.692;2023-09-12T01:47:30;17.60;;;11.70;;
78324;SDS011;67584;51.400;6.692;2023-09-12T01:49:58;17.20;;;12.15;;
78324;SDS011;67584;51.400;6.692;2023-09-12T01:52:26;17.20;;;13.15;;
78324;SDS011;67584;51.400;6.692;2023-09-12T01:54:52;15.82;;;10.80;;
78324;SDS011;67584;51.400;6.692;2023-09-12T01:57:18;20.13;;;13.60;;
78324;SDS011;67584;51.400;6.692;2023-09-12T01:59:48;18.08;;;11.75;;
78324;SDS011;67584;51.400;6.692;2023-09-12T02:02:17;15.60;;;11.55;;
78324;SDS011;67584;51.400;6.692;2023-09-12T02:04:51;16.65;;;11.40;;
78324;SDS011;67584;51.400;6.692;2023-09-12T02:12:16;17.15;;;11.25;;
78324;SDS011;67584;51.400;6.692;2023-09-12T02:14:42;15.40;;;11.50;;
78324;SDS011;67584;51.400;6.692;2023-09-12T02:17:08;17.08;;;12.30;;
78324;SDS011;67584;51.400;6.692;2023-09-12T02:19:34;17.70;;;12.13;;
78324;SDS011;67584;51.400;6.692;2023-09-12T02:21:59;18.52;;;12.50;;
78324;SDS011;67584;51.400;6.692;2023-09-12T02:24:25;18.58;;;12.98;;
78324;SDS011;67584;51.400;6.692;2023-09-12T02:26:51;16.10;;;11.70;;
78324;SDS011;67584;51.400;6.692;2023-09-12T02:29:16;15.23;;;11.15;;
78324;SDS011;67584;51.400;6.692;2023-09-12T02:31:42;15.98;;;11.68;;
78324;SDS011;67584;51.400;6.692;2023-09-12T02:34:08;15.75;;;11.98;;
78324;SDS011;67584;51.400;6.692;2023-09-12T02:36:33;18.77;;;12.38;;
78324;SDS011;67584;51.400;6.692;2023-09-12T02:38:59;18.23;;;11.65;;
78324;SDS011;67584;51.400;6.692;2023-09-12T02:41:25;15.35;;;11.40;;
78324;SDS011;67584;51.400;6.692;2023-09-12T02:43:51;14.15;;;11.10;;
78324;SDS011;67584;51.400;6.692;2023-09-12T02:46:17;16.85;;;12.25;;
78324;SDS011;67584;51.400;6.692;2023-09-12T02:48:43;15.43;;;11.95;;
78324;SDS011;67584;51.400;6.692;2023-09-12T02:51:08;20.70;;;12.55;;
78324;SDS011;67584;51.400;6.692;2023-09-12T02:53:34;19.65;;;12.70;;
78324;SDS011;67584;51.400;6.692;2023-09-12T02:55:59;21.85;;;13.10;;
78324;SDS011;67584;51.400;6.692;2023-09-12T02:58:25;19.73;;;12.52;;
78324;SDS011;67584;51.400;6.692;2023-09-12T03:00:51;18.38;;;12.43;;
78324;SDS011;67584;51.400;6.692;2023-09-12T03:03:19;20.30;;;13.55;;
78324;SDS011;67584;51.400;6.692;2023-09-12T03:05:46;20.10;;;12.00;;
78324;SDS011;67584;51.400;6.692;2023-09-12T03:08:12;17.85;;;12.45;;
78324;SDS011;67584;51.400;6.692;2023-09-12T03:10:37;16.38;;;11.60;;
78324;SDS011;67584;51.400;6.692;2023-09-12T03:13:03;17.77;;;12.40;;
78324;SDS011;67584;51.400;6.692;2023-09-12T03:15:29;17.58;;;12.20;;
78324;SDS011;67584;51.400;6.692;2023-09-12T03:17:54;20.88;;;13.73;;
78324;SDS011;67584;51.400;6.692;2023-09-12T03:20:20;17.23;;;12.02;;
78324;SDS011;67584;51.400;6.692;2023-09-12T03:22:46;17.85;;;13.05;;
78324;SDS011;67584;51.400;6.692;2023-09-12T03:25:12;19.50;;;13.30;;
78324;SDS011;67584;51.400;6.692;2023-09-12T03:27:37;16.85;;;12.40;;
78324;SDS011;67584;51.400;6.692;2023-09-12T03:30:04;18.80;;;12.13;;
78324;SDS011;67584;51.400;6.692;2023-09-12T03:32:30;19.73;;;13.40;;
78324;SDS011;67584;51.400;6.692;2023-09-12T03:34:56;18.30;;;13.05;;
78324;SDS011;67584;51.400;6.692;2023-09-12T03:37:22;16.73;;;11.93;;
78324;SDS011;67584;51.400;6.692;2023-09-12T03:39:47;13.95;;;10.68;;
78324;SDS011;67584;51.400;6.692;2023-09-12T03:42:13;16.40;;;11.70;;
78324;SDS011;67584;51.400;6.692;2023-09-12T03:44:39;17.52;;;11.95;;
78324;SDS011;67584;51.400;6.692;2023-09-12T03:47:04;26.63;;;12.80;;
78324;SDS011;67584;51.400;6.692;2023-09-12T03:49:30;19.40;;;14.25;;
78324;SDS011;67584;51.400;6.692;2023-09-12T03:51:56;16.40;;;12.20;;
78324;SDS011;67584;51.400;6.692;2023-09-12T03:54:22;15.80;;;12.98;;
78324;SDS011;67584;51.400;6.692;2023-09-12T03:56:47;18.67;;;14.70;;
78324;SDS011;67584;51.400;6.692;2023-09-12T03:59:13;20.13;;;13.93;;
78324;SDS011;67584;51.400;6.692;2023-09-12T04:01:39;21.40;;;15.65;;
78324;SDS011;67584;51.400;6.692;2023-09-12T04:04:04;21.95;;;14.63;;
78324;SDS011;67584;51.400;6.692;2023-09-12T04:06:30;22.45;;;15.60;;
78324;SDS011;67584;51.400;6.692;2023-09-12T04:08:56;21.10;;;13.57;;
78324;SDS011;67584;51.400;6.692;2023-09-12T04:11:21;19.13;;;13.45;;
78324;SDS011;67584;51.400;6.692;2023-09-12T04:13:47;15.80;;;12.43;;
78324;SDS011;67584;51.400;6.692;2023-09-12T04:16:13;20.13;;;13.57;;
78324;SDS011;67584;51.400;6.692;2023-09-12T04:18:39;18.70;;;13.85;;
78324;SDS011;67584;51.400;6.692;2023-09-12T04:21:06;22.40;;;14.82;;
78324;SDS011;67584;51.400;6.692;2023-09-12T04:23:31;24.90;;;15.15;;
78324;SDS011;67584;51.400;6.692;2023-09-12T04:25:57;22.35;;;13.43;;
78324;SDS011;67584;51.400;6.692;2023-09-12T04:28:25;21.77;;;15.00;;
78324;SDS011;67584;51.400;6.692;2023-09-12T04:30:51;20.05;;;14.27;;
78324;SDS011;67584;51.400;6.692;2023-09-12T04:33:25;20.73;;;14.48;;
78324;SDS011;67584;51.400;6.692;2023-09-12T04:35:51;24.98;;;16.20;;
78324;SDS011;67584;51.400;6.692;2023-09-12T04:38:16;27.88;;;17.67;;
78324;SDS011;67584;51.400;6.692;2023-09-12T04:40:42;26.83;;;17.45;;
78324;SDS011;67584;51.400;6.692;2023-09-12T04:43:08;28.30;;;16.70;;
78324;SDS011;67584;51.400;6.692;2023-09-12T04:45:33;26.85;;;16.98;;
78324;SDS011;67584;51.400;6.692;2023-09-12T04:47:59;25.90;;;16.25;;
78324;SDS011;67584;51.400;6.692;2023-09-12T04:50:25;25.35;;;16.83;;
78324;SDS011;67584;51.400;6.692;2023-09-12T04:52:51;24.02;;;16.58;;
78324;SDS011;67584;51.400;6.692;2023-09-12T04:55:16;26.23;;;15.80;;
78324;SDS011;67584;51.400;6.692;2023-09-12T04:57:42;22.23;;;14.07;;
78324;SDS011;67584;51.400;6.692;2023-09-12T05:00:08;22.35;;;15.75;;
78324;SDS011;67584;51.400;6.692;2023-09-12T05:02:36;22.05;;;15.05;;
78324;SDS011;67584;51.400;6.692;2023-09-12T05:05:01;21.67;;;15.05;;
78324;SDS011;67584;51.400;6.692;2023-09-12T05:07:29;24.52;;;16.13;;
78324;SDS011;67584;51.400;6.692;2023-09-12T05:09:54;22.48;;;15.70;;
78324;SDS011;67584;51.400;6.692;2023-09-12T05:12:20;22.42;;;16.70;;
78324;SDS011;67584;51.400;6.692;2023-09-12T05:14:46;25.60;;;15.07;;
78324;SDS011;67584;51.400;6.692;2023-09-12T05:17:12;26.33;;;17.23;;
78324;SDS011;67584;51.400;6.692;2023-09-12T05:19:38;21.13;;;15.43;;
78324;SDS011;67584;51.400;6.692;2023-09-12T05:22:03;44.70;;;19.27;;
78324;SDS011;67584;51.400;6.692;2023-09-12T05:24:29;24.15;;;16.67;;
78324;SDS011;67584;51.400;6.692;2023-09-12T05:26:55;30.50;;;17.48;;
78324;SDS011;67584;51.400;6.692;2023-09-12T05:29:21;29.05;;;18.83;;
78324;SDS011;67584;51.400;6.692;2023-09-12T05:31:47;33.05;;;19.38;;
78324;SDS011;67584;51.400;6.692;2023-09-12T05:34:12;27.60;;;16.67;;
78324;SDS011;67584;51.400;6.692;2023-09-12T05:36:38;27.70;;;18.38;;
78324;SDS011;67584;51.400;6.692;2023-09-12T05:39:04;32.58;;;18.48;;
78324;SDS011;67584;51.400;6.692;2023-09-12T05:41:30;33.13;;;19.33;;
78324;SDS011;67584;51.400;6.692;2023-09-12T05:43:56;26.52;;;18.25;;
78324;SDS011;67584;51.400;6.692;2023-09-12T05:46:22;27.02;;;17.20;;
78324;SDS011;67584;51.400;6.692;2023-09-12T05:48:47;28.00;;;17.60;;
78324;SDS011;67584;51.400;6.692;2023-09-12T05:51:13;27.80;;;17.38;;
78324;SDS011;67584;51.400;6.692;2023-09-12T05:53:39;30.70;;;17.45;;
78324;SDS011;67584;51.400;6.692;2023-09-12T05:56:04;29.10;;;18.13;;
78324;SDS011;67584;51.400;6.692;2023-09-12T05:58:30;27.45;;;15.75;;
78324;SDS011;67584;51.400;6.692;2023-09-12T06:00:56;25.63;;;15.60;;
78324;SDS011;67584;51.400;6.692;2023-09-12T06:03:22;28.23;;;16.48;;
78324;SDS011;67584;51.400;6.692;2023-09-12T06:05:47;28.08;;;17.10;;
78324;SDS011;67584;51.400;6.692;2023-09-12T06:08:13;33.28;;;19.35;;
78324;SDS011;67584;51.400;6.692;2023-09-12T06:10:39;97.60;;;24.25;;
78324;SDS011;67584;51.400;6.692;2023-09-12T06:13:04;43.75;;;22.98;;
78324;SDS011;67584;51.400;6.692;2023-09-12T06:15:30;55.28;;;23.08;;
78324;SDS011;67584;51.400;6.692;2023-09-12T06:17:55;61.38;;;23.63;;
78324;SDS011;67584;51.400;6.692;2023-09-12T06:20:21;32.67;;;16.48;;
78324;SDS011;67584;51.400;6.692;2023-09-12T06:22:47;20.13;;;11.45;;
78324;SDS011;67584;51.400;6.692;2023-09-12T06:25:12;22.77;;;12.00;;
78324;SDS011;67584;51.400;6.692;2023-09-12T06:27:38;27.38;;;13.70;;
78324;SDS011;67584;51.400;6.692;2023-09-12T06:30:04;26.67;;;15.35;;
78324;SDS011;67584;51.400;6.692;2023-09-12T06:32:30;29.02;;;14.98;;
78324;SDS011;67584;51.400;6.692;2023-09-12T06:34:56;35.10;;;16.60;;
78324;SDS011;67584;51.400;6.692;2023-09-12T06:37:21;38.78;;;17.42;;
78324;SDS011;67584;51.400;6.692;2023-09-12T06:39:50;38.10;;;18.58;;
78324;SDS011;67584;51.400;6.692;2023-09-12T06:42:16;41.83;;;18.65;;
78324;SDS011;67584;51.400;6.692;2023-09-12T06:44:42;29.35;;;17.27;;
78324;SDS011;67584;51.400;6.692;2023-09-12T06:47:08;30.05;;;16.40;;
78324;SDS011;67584;51.400;6.692;2023-09-12T06:49:35;24.95;;;15.45;;
78324;SDS011;67584;51.400;6.692;2023-09-12T06:52:02;13.82;;;10.10;;
78324;SDS011;67584;51.400;6.692;2023-09-12T06:54:28;17.65;;;10.07;;
78324;SDS011;67584;51.400;6.692;2023-09-12T06:56:54;22.08;;;12.60;;
78324;SDS011;67584;51.400;6.692;2023-09-12T06:59:20;26.33;;;14.52;;
78324;SDS011;67584;51.400;6.692;2023-09-12T07:01:46;24.75;;;12.75;;
78324;SDS011;67584;51.400;6.692;2023-09-12T07:04:11;26.33;;;14.30;;
78324;SDS011;67584;51.400;6.692;2023-09-12T07:06:37;27.00;;;14.27;;
78324;SDS011;67584;51.400;6.692;2023-09-12T07:09:02;16.73;;;11.68;;
78324;SDS011;67584;51.400;6.692;2023-09-12T07:11:29;19.55;;;11.80;;
78324;SDS011;67584;51.400;6.692;2023-09-12T07:13:55;19.88;;;11.88;;
78324;SDS011;67584;51.400;6.692;2023-09-12T07:16:21;19.88;;;11.50;;
78324;SDS011;67584;51.400;6.692;2023-09-12T07:18:47;13.13;;;9.25;;
78324;SDS011;67584;51.400;6.692;2023-09-12T07:21:14;19.48;;;10.23;;
78324;SDS011;67584;51.400;6.692;2023-09-12T07:23:39;14.43;;;9.23;;
78324;SDS011;67584;51.400;6.692;2023-09-12T07:26:05;11.52;;;7.45;;
78324;SDS011;67584;51.400;6.692;2023-09-12T07:28:36;7.07;;;5.32;;
78324;SDS011;67584;51.400;6.692;2023-09-12T07:31:02;8.63;;;5.10;;
78324;SDS011;67584;51.400;6.692;2023-09-12T07:33:28;6.75;;;4.68;;
78324;SDS011;67584;51.400;6.692;2023-09-12T07:35:53;9.52;;;4.55;;
78324;SDS011;67584;51.400;6.692;2023-09-12T07:38:20;6.75;;;3.50;;
78324;SDS011;67584;51.400;6.692;2023-09-12T07:40:46;6.78;;;4.13;;
78324;SDS011;67584;51.400;6.692;2023-09-12T07:43:11;5.28;;;3.40;;
78324;SDS011;67584;51.400;6.692;2023-09-12T07:45:37;6.35;;;3.50;;
78324;SDS011;67584;51.400;6.692;2023-09-12T07:48:06;5.53;;;3.88;;
78324;SDS011;67584;51.400;6.692;2023-09-12T07:50:33;6.18;;;3.67;;
78324;SDS011;67584;51.400;6.692;2023-09-12T07:52:59;5.75;;;3.85;;
78324;SDS011;67584;51.400;6.692;2023-09-12T07:55:25;6.05;;;4.38;;
78324;SDS011;67584;51.400;6.692;2023-09-12T07:57:50;8.90;;;4.78;;
78324;SDS011;67584;51.400;6.692;2023-09-12T08:00:16;8.13;;;5.65;;
78324;SDS011;67584;51.400;6.692;2023-09-12T08:02:42;9.63;;;6.25;;
78324;SDS011;67584;51.400;6.692;2023-09-12T08:05:08;11.38;;;7.55;;
78324;SDS011;67584;51.400;6.692;2023-09-12T08:07:34;11.07;;;7.95;;
78324;SDS011;67584;51.400;6.692;2023-09-12T08:10:01;13.23;;;8.45;;
78324;SDS011;67584;51.400;6.692;2023-09-12T08:12:28;10.70;;;7.57;;
78324;SDS011;67584;51.400;6.692;2023-09-12T08:14:54;11.45;;;8.20;;
78324;SDS011;67584;51.400;6.692;2023-09-12T08:17:20;13.00;;;8.45;;
78324;SDS011;67584;51.400;6.692;2023-09-12T08:19:46;12.32;;;9.05;;
78324;SDS011;67584;51.400;6.692;2023-09-12T08:22:12;13.85;;;9.63;;
78324;SDS011;67584;51.400;6.692;2023-09-12T08:24:38;18.38;;;10.27;;
78324;SDS011;67584;51.400;6.692;2023-09-12T08:27:06;27.50;;;13.00;;
78324;SDS011;67584;51.400;6.692;2023-09-12T08:29:32;25.73;;;14.73;;
78324;SDS011;67584;51.400;6.692;2023-09-12T08:31:59;26.98;;;14.48;;
78324;SDS011;67584;51.400;6.692;2023-09-12T08:34:25;25.77;;;13.32;;
78324;SDS011;67584;51.400;6.692;2023-09-12T08:36:51;24.50;;;15.00;;
78324;SDS011;67584;51.400;6.692;2023-09-12T08:39:18;18.90;;;13.25;;
78324;SDS011;67584;51.400;6.692;2023-09-12T08:41:51;20.48;;;14.95;;
78324;SDS011;67584;51.400;6.692;2023-09-12T08:44:18;23.05;;;15.05;;
78324;SDS011;67584;51.400;6.692;2023-09-12T08:46:45;20.42;;;15.02;;
78324;SDS011;67584;51.400;6.692;2023-09-12T08:49:11;16.48;;;13.18;;
78324;SDS011;67584;51.400;6.692;2023-09-12T08:51:37;19.85;;;14.73;;
78324;SDS011;67584;51.400;6.692;2023-09-12T08:54:04;17.80;;;12.60;;
78324;SDS011;67584;51.400;6.692;2023-09-12T08:56:31;17.67;;;12.80;;
78324;SDS011;67584;51.400;6.692;2023-09-12T08:59:00;19.70;;;14.68;;
78324;SDS011;67584;51.400;6.692;2023-09-12T09:01:26;24.30;;;18.40;;
78324;SDS011;67584;51.400;6.692;2023-09-12T09:03:56;20.92;;;16.60;;
78324;SDS011;67584;51.400;6.692;2023-09-12T09:06:22;22.38;;;18.60;;
78324;SDS011;67584;51.400;6.692;2023-09-12T09:08:51;23.98;;;19.35;;
78324;SDS011;67584;51.400;6.692;2023-09-12T09:11:17;23.77;;;18.67;;
78324;SDS011;67584;51.400;6.692;2023-09-12T09:13:43;22.92;;;19.55;;
78324;SDS011;67584;51.400;6.692;2023-09-12T09:16:15;23.85;;;20.88;;
78324;SDS011;67584;51.400;6.692;2023-09-12T09:19:01;25.25;;;20.42;;
78324;SDS011;67584;51.400;6.692;2023-09-12T09:24:00;23.10;;;19.40;;
78324;SDS011;67584;51.400;6.692;2023-09-12T09:26:50;27.13;;;22.92;;
78324;SDS011;67584;51.400;6.692;2023-09-12T09:29:16;30.55;;;24.25;;
78324;SDS011;67584;51.400;6.692;2023-09-12T09:31:44;27.00;;;23.80;;
78324;SDS011;67584;51.400;6.692;2023-09-12T09:34:15;28.55;;;24.38;;
78324;SDS011;67584;51.400;6.692;2023-09-12T09:36:49;32.78;;;28.25;;
78324;SDS011;67584;51.400;6.692;2023-09-12T09:39:16;32.92;;;28.80;;
78324;SDS011;67584;51.400;6.692;2023-09-12T09:41:53;32.55;;;28.20;;
78324;SDS011;67584;51.400;6.692;2023-09-12T09:44:21;33.63;;;27.27;;
78324;SDS011;67584;51.400;6.692;2023-09-12T09:46:54;36.67;;;29.70;;
78324;SDS011;67584;51.400;6.692;2023-09-12T09:49:21;32.67;;;23.70;;
78324;SDS011;67584;51.400;6.692;2023-09-12T09:51:47;27.08;;;21.73;;
78324;SDS011;67584;51.400;6.692;2023-09-12T09:54:13;23.35;;;18.45;;
78324;SDS011;67584;51.400;6.692;2023-09-12T09:59:16;16.10;;;13.52;;
78324;SDS011;67584;51.400;6.692;2023-09-12T10:01:43;13.52;;;11.25;;
78324;SDS011;67584;51.400;6.692;2023-09-12T10:04:10;9.93;;;8.63;;
78324;SDS011;67584;51.400;6.692;2023-09-12T10:06:36;9.93;;;8.65;;
78324;SDS011;67584;51.400;6.692;2023-09-12T10:09:05;13.82;;;8.07;;
78324;SDS011;67584;51.400;6.692;2023-09-12T10:11:37;9.10;;;8.07;;
78324;SDS011;67584;51.400;6.692;2023-09-12T10:14:05;10.07;;;7.72;;
78324;SDS011;67584;51.400;6.692;2023-09-12T10:16:35;7.70;;;6.78;;
78324;SDS011;67584;51.400;6.692;2023-09-12T10:19:24;6.18;;;5.32;;
78324;SDS011;67584;51.400;6.692;2023-09-12T10:22:04;7.10;;;5.85;;
78324;SDS011;67584;51.400;6.692;2023-09-12T10:24:32;6.43;;;5.68;;
78324;SDS011;67584;51.400;6.692;2023-09-12T10:26:59;5.93;;;5.43;;
78324;SDS011;67584;51.400;6.692;2023-09-12T10:29:27;5.57;;;5.00;;
78324;SDS011;67584;51.400;6.692;2023-09-12T10:31:53;6.45;;;5.20;;
78324;SDS011;67584;51.400;6.692;2023-09-12T10:34:19;4.78;;;4.13;;
78324;SDS011;67584;51.400;6.692;2023-09-12T10:36:46;5.93;;;5.43;;
78324;SDS011;67584;51.400;6.692;2023-09-12T10:39:13;6.28;;;5.75;;
78324;SDS011;67584;51.400;6.692;2023-09-12T10:41:40;6.30;;;5.70;;
78324;SDS011;67584;51.400;6.692;2023-09-12T10:44:07;7.55;;;6.25;;
78324;SDS011;67584;51.400;6.692;2023-09-12T10:46:39;7.50;;;6.15;;
78324;SDS011;67584;51.400;6.692;2023-09-12T10:49:06;6.80;;;6.18;;
78324;SDS011;67584;51.400;6.692;2023-09-12T10:51:43;7.40;;;6.20;;
78324;SDS011;67584;51.400;6.692;2023-09-12T10:54:53;6.82;;;5.72;;
78324;SDS011;67584;51.400;6.692;2023-09-12T10:57:07;4.38;;;3.78;;
78324;SDS011;67584;51.400;6.692;2023-09-12T11:02:41;6.57;;;5.20;;
78324;SDS011;67584;51.400;6.692;2023-09-12T11:07:55;6.90;;;5.43;;
78324;SDS011;67584;51.400;6.692;2023-09-12T11:10:23;6.90;;;6.25;;
78324;SDS011;67584;51.400;6.692;2023-09-12T11:12:51;5.75;;;5.20;;
78324;SDS011;67584;51.400;6.692;2023-09-12T11:15:19;5.78;;;5.28;;
78324;SDS011;67584;51.400;6.692;2023-09-12T11:17:59;7.15;;;5.78;;
78324;SDS011;67584;51.400;6.692;2023-09-12T11:20:26;7.20;;;5.88;;
78324;SDS011;67584;51.400;6.692;2023-09-12T11:23:17;8.18;;;6.78;;
78324;SDS011;67584;51.400;6.692;2023-09-12T11:25:43;7.45;;;5.88;;
78324;SDS011;67584;51.400;6.692;2023-09-12T11:28:08;6.80;;;6.10;;
78324;SDS011;67584;51.400;6.692;2023-09-12T11:30:34;6.65;;;5.75;;
78324;SDS011;67584;51.400;6.692;2023-09-12T11:33:03;7.30;;;6.43;;
78324;SDS011;67584;51.400;6.692;2023-09-12T11:35:30;8.32;;;7.03;;
78324;SDS011;67584;51.400;6.692;2023-09-12T11:38:02;8.20;;;7.28;;
78324;SDS011;67584;51.400;6.692;2023-09-12T11:43:00;9.10;;;6.43;;
78324;SDS011;67584;51.400;6.692;2023-09-12T11:45:26;11.55;;;7.47;;
78324;SDS011;67584;51.400;6.692;2023-09-12T11:47:53;8.05;;;7.22;;
78324;SDS011;67584;51.400;6.692;2023-09-12T11:50:32;7.85;;;6.80;;
78324;SDS011;67584;51.400;6.692;2023-09-12T11:53:01;9.05;;;6.95;;
78324;SDS011;67584;51.400;6.692;2023-09-12T11:55:35;8.05;;;7.20;;
78324;SDS011;67584;51.400;6.692;2023-09-12T11:58:03;10.10;;;7.60;;
78324;SDS011;67584;51.400;6.692;2023-09-12T12:00:30;9.52;;;8.23;;
78324;SDS011;67584;51.400;6.692;2023-09-12T12:02:56;8.13;;;6.80;;
78324;SDS011;67584;51.400;6.692;2023-09-12T12:05:22;8.05;;;7.20;;
78324;SDS011;67584;51.400;6.692;2023-09-12T12:07:48;10.25;;;8.65;;
78324;SDS011;67584;51.400;6.692;2023-09-12T12:10:18;9.80;;;8.90;;
78324;SDS011;67584;51.400;6.692;2023-09-12T12:12:48;9.52;;;8.60;;
78324;SDS011;67584;51.400;6.692;2023-09-12T12:15:18;9.85;;;8.88;;
78324;SDS011;67584;51.400;6.692;2023-09-12T12:17:46;9.77;;;8.93;;
78324;SDS011;67584;51.400;6.692;2023-09-12T12:20:12;9.57;;;8.68;;
78324;SDS011;67584;51.400;6.692;2023-09-12T12:22:38;10.55;;;9.55;;
78324;SDS011;67584;51.400;6.692;2023-09-12T12:25:08;9.68;;;8.80;;
78324;SDS011;67584;51.400;6.692;2023-09-12T12:27:35;10.52;;;9.52;;
78324;SDS011;67584;51.400;6.692;2023-09-12T12:30:02;9.82;;;8.68;;
78324;SDS011;67584;51.400;6.692;2023-09-12T12:32:28;9.57;;;8.77;;
78324;SDS011;67584;51.400;6.692;2023-09-12T12:34:53;9.23;;;8.32;;
78324;SDS011;67584;51.400;6.692;2023-09-12T12:37:19;10.70;;;9.45;;
78324;SDS011;67584;51.400;6.692;2023-09-12T12:39:45;10.90;;;9.90;;
78324;SDS011;67584;51.400;6.692;2023-09-12T12:42:10;9.38;;;8.38;;
78324;SDS011;67584;51.400;6.692;2023-09-12T12:44:36;7.53;;;6.57;;
78324;SDS011;67584;51.400;6.692;2023-09-12T12:47:05;9.27;;;8.57;;
78324;SDS011;67584;51.400;6.692;2023-09-12T12:49:35;9.18;;;8.38;;
78324;SDS011;67584;51.400;6.692;2023-09-12T12:52:03;7.68;;;6.90;;
78324;SDS011;67584;51.400;6.692;2023-09-12T12:54:31;10.18;;;7.45;;
78324;SDS011;67584;51.400;6.692;2023-09-12T12:56:58;8.05;;;7.25;;
78324;SDS011;67584;51.400;6.692;2023-09-12T12:59:25;7.88;;;7.18;;
78324;SDS011;67584;51.400;6.692;2023-09-12T13:01:50;7.68;;;6.97;;
78324;SDS011;67584;51.400;6.692;2023-09-12T13:04:16;8.13;;;7.32;;
78324;SDS011;67584;51.400;6.692;2023-09-12T13:06:42;7.55;;;6.85;;
78324;SDS011;67584;51.400;6.692;2023-09-12T13:09:08;8.82;;;8.02;;
78324;SDS011;67584;51.400;6.692;2023-09-12T13:11:34;8.32;;;7.65;;
78324;SDS011;67584;51.400;6.692;2023-09-12T13:14:00;8.27;;;7.50;;
78324;SDS011;67584;51.400;6.692;2023-09-12T13:16:27;8.93;;;8.02;;
78324;SDS011;67584;51.400;6.692;2023-09-12T13:18:53;7.57;;;6.88;;
78324;SDS011;67584;51.400;6.692;2023-09-12T13:21:19;9.98;;;8.30;;
78324;SDS011;67584;51.400;6.692;2023-09-12T13:23:45;9.00;;;8.20;;
78324;SDS011;67584;51.400;6.692;2023-09-12T13:26:11;7.93;;;6.88;;
78324;SDS011;67584;51.400;6.692;2023-09-12T13:28:36;7.47;;;6.88;;
78324;SDS011;67584;51.400;6.692;2023-09-12T13:31:02;8.82;;;7.57;;
78324;SDS011;67584;51.400;6.692;2023-09-12T13:33:28;10.30;;;9.40;;
78324;SDS011;67584;51.400;6.692;2023-09-12T13:35:54;9.77;;;9.02;;
78324;SDS011;67584;51.400;6.692;2023-09-12T13:38:20;9.82;;;9.02;;
78324;SDS011;67584;51.400;6.692;2023-09-12T13:40:47;9.60;;;8.70;;
78324;SDS011;67584;51.400;6.692;2023-09-12T13:43:13;10.27;;;9.48;;
78324;SDS011;67584;51.400;6.692;2023-09-12T13:45:40;10.07;;;9.23;;
78324;SDS011;67584;51.400;6.692;2023-09-12T13:48:06;10.20;;;9.20;;
78324;SDS011;67584;51.400;6.692;2023-09-12T13:50:33;8.20;;;7.40;;
78324;SDS011;67584;51.400;6.692;2023-09-12T13:52:59;10.48;;;9.48;;
78324;SDS011;67584;51.400;6.692;2023-09-12T13:55:29;10.02;;;9.23;;
78324;SDS011;67584;51.400;6.692;2023-09-12T13:57:55;9.55;;;8.63;;
78324;SDS011;67584;51.400;6.692;2023-09-12T14:00:21;9.60;;;8.90;;
78324;SDS011;67584;51.400;6.692;2023-09-12T14:02:46;10.07;;;9.18;;
78324;SDS011;67584;51.400;6.692;2023-09-12T14:05:12;9.80;;;8.90;;
78324;SDS011;67584;51.400;6.692;2023-09-12T14:07:38;9.13;;;8.43;;
78324;SDS011;67584;51.400;6.692;2023-09-12T14:10:08;7.53;;;6.93;;
78324;SDS011;67584;51.400;6.692;2023-09-12T14:12:34;9.32;;;8.52;;
78324;SDS011;67584;51.400;6.692;2023-09-12T14:15:00;9.27;;;8.48;;
78324;SDS011;67584;51.400;6.692;2023-09-12T14:17:26;8.95;;;7.80;;
78324;SDS011;67584;51.400;6.692;2023-09-12T14:19:53;9.23;;;8.43;;
78324;SDS011;67584;51.400;6.692;2023-09-12T14:22:20;8.63;;;7.93;;
78324;SDS011;67584;51.400;6.692;2023-09-12T14:24:46;7.45;;;6.75;;
78324;SDS011;67584;51.400;6.692;2023-09-12T14:27:12;7.40;;;6.72;;
78324;SDS011;67584;51.400;6.692;2023-09-12T14:29:38;8.70;;;7.80;;
78324;SDS011;67584;51.400;6.692;2023-09-12T14:32:04;9.02;;;8.23;;
78324;SDS011;67584;51.400;6.692;2023-09-12T14:34:30;7.63;;;7.03;;
78324;SDS011;67584;51.400;6.692;2023-09-12T14:36:58;8.85;;;8.13;;
78324;SDS011;67584;51.400;6.692;2023-09-12T14:39:24;8.20;;;6.05;;
78324;SDS011;67584;51.400;6.692;2023-09-12T14:41:51;7.43;;;6.75;;
78324;SDS011;67584;51.400;6.692;2023-09-12T14:44:17;7.25;;;6.65;;
78324;SDS011;67584;51.400;6.692;2023-09-12T14:46:44;7.45;;;6.80;;
78324;SDS011;67584;51.400;6.692;2023-09-12T14:49:09;8.30;;;6.63;;
78324;SDS011;67584;51.400;6.692;2023-09-12T14:51:36;6.50;;;6.00;;